Time;durP1;ratioP1;P1;durP2;ratioP2;P2;SDS_P1;SDS_P2;PMS_P1;PMS_P2;Temp;Humidity;BMP_temperature;BMP_pressure;BME280_temperature;BME280_humidity;BME280_pressure;Samples;Min_cycle;Max_cycle;Signal;HPM_P1;HPM_P2
2023/02/25 00:02:10;;;;;;;3.55;1.88;;;;;;;6.12;62.64;98991.16;10358518;28;20045;-53
2023/02/25 00:07:12;;;;;;;3.78;1.33;;;;;;;6.25;62.78;98998.91;10358625;28;20115;-54
2023/02/25 00:12:13;;;;;;;3.13;1.20;;;;;;;6.49;61.52;99004.78;10359966;28;20045;-53
2023/02/25 00:17:15;;;;;;;5.60;1.77;;;;;;;6.40;61.98;98999.44;10358046;28;20056;-54
2023/02/25 00:22:16;;;;;;;4.80;1.60;;;;;;;6.35;62.81;99023.59;10367956;28;20196;-54
2023/02/25 00:27:18;;;;;;;4.95;1.85;;;;;;;6.29;63.46;99011.75;10367323;28;20049;-54
2023/02/25 00:32:21;;;;;;;5.05;1.90;;;;;;;6.42;63.91;99026.59;10368732;28;20755;-54
2023/02/25 00:37:23;;;;;;;6.10;2.17;;;;;;;6.50;63.77;99024.13;10363598;28;20045;-55
2023/02/25 00:42:24;;;;;;;5.28;2.35;;;;;;;6.43;63.51;99023.81;10358241;28;20049;-54
2023/02/25 00:47:26;;;;;;;5.80;2.28;;;;;;;6.45;63.12;99031.63;10365658;28;20494;-55
2023/02/25 00:52:28;;;;;;;5.55;2.38;;;;;;;6.53;62.36;99037.09;10367464;28;20049;-57
2023/02/25 00:57:30;;;;;;;5.72;2.45;;;;;;;6.55;61.98;99045.75;10365205;28;20060;-54
2023/02/25 01:02:31;;;;;;;7.43;2.40;;;;;;;6.58;61.74;99020.88;10365756;28;20049;-54
2023/02/25 01:07:33;;;;;;;3.45;2.28;;;;;;;6.50;62.46;99024.13;10365366;28;20051;-54
2023/02/25 01:12:35;;;;;;;5.00;2.47;;;;;;;6.54;61.34;99025.56;10364448;28;20508;-54
2023/02/25 01:17:37;;;;;;;6.63;2.50;;;;;;;6.57;61.61;99024.47;10361435;28;21328;-54
2023/02/25 01:22:40;;;;;;;5.07;2.33;;;;;;;6.63;61.95;99035.34;10365348;28;20069;-55
2023/02/25 01:27:42;;;;;;;6.78;2.20;;;;;;;6.69;62.18;99037.50;10374338;28;20971;-54
2023/02/25 01:32:44;;;;;;;7.60;2.58;;;;;;;6.60;62.24;99014.47;10365139;28;20537;-54
2023/02/25 01:37:48;;;;;;;8.75;3.78;;;;;;;6.55;62.19;99021.97;10364759;28;20267;-54
2023/02/25 01:42:50;;;;;;;7.78;2.72;;;;;;;6.49;63.01;99010.06;10363141;28;20142;-54
2023/02/25 01:47:58;;;;;;;11.50;4.13;;;;;;;6.52;63.19;99014.28;10381950;28;20155;-54
2023/02/25 01:53:02;;;;;;;7.80;2.95;;;;;;;6.67;62.69;99020.91;10359156;28;20053;-54
2023/02/25 01:58:04;;;;;;;8.43;3.50;;;;;;;6.75;62.22;99020.28;10363052;28;20069;-54
2023/02/25 02:03:14;;;;;;;7.82;2.90;;;;;;;6.72;62.26;99018.75;10362252;28;20130;-54
2023/02/25 02:08:16;;;;;;;6.75;2.50;;;;;;;6.57;62.09;99027.13;10358174;28;20041;-54
2023/02/25 02:13:19;;;;;;;8.63;2.92;;;;;;;6.62;62.39;99020.47;10341242;28;20403;-54
2023/02/25 02:18:21;;;;;;;6.25;2.55;;;;;;;6.74;61.98;99029.19;10354133;28;20056;-54
2023/02/25 02:23:55;;;;;;;6.53;2.92;;;;;;;6.46;61.02;99034.13;10349272;28;20156;-54
2023/02/25 02:29:15;;;;;;;8.38;2.70;;;;;;;6.14;59.31;99031.47;10355543;28;20051;-54
2023/02/25 02:34:35;;;;;;;5.82;1.85;;;;;;;6.19;57.33;99022.22;10352612;28;20457;-54
2023/02/25 02:39:58;;;;;;;3.90;2.58;;;;;;;6.00;56.55;99032.59;10355795;28;20045;-54
2023/02/25 02:45:09;;;;;;;7.95;2.28;;;;;;;5.98;56.04;99024.81;10360783;28;20045;-54
2023/02/25 02:50:19;;;;;;;4.45;1.60;;;;;;;6.01;55.28;99003.44;10357649;28;20052;-54
2023/02/25 02:55:30;;;;;;;4.28;1.83;;;;;;;6.10;54.18;99022.16;10350434;28;20045;-54
2023/02/25 03:00:38;;;;;;;5.47;1.90;;;;;;;5.99;54.32;99015.94;10358036;28;20056;-59
2023/02/25 03:05:43;;;;;;;3.65;2.25;;;;;;;5.88;55.83;99028.28;10355886;28;20045;-54
2023/02/25 03:10:44;;;;;;;4.00;1.83;;;;;;;6.09;56.33;99046.88;10357534;28;20667;-57
2023/02/25 03:15:47;;;;;;;3.88;2.35;;;;;;;6.27;56.80;99045.38;10352358;28;20049;-54
2023/02/25 03:20:52;;;;;;;7.50;2.58;;;;;;;6.30;57.17;99026.63;10353836;28;20605;-54
2023/02/25 03:26:16;;;;;;;8.30;2.30;;;;;;;6.44;57.16;99056.34;10368091;28;20140;-54
2023/02/25 03:31:24;;;;;;;6.20;2.17;;;;;;;6.40;57.51;99053.13;10345502;28;20692;-54
2023/02/25 03:36:31;;;;;;;6.10;2.80;;;;;;;6.39;56.75;99040.06;10331197;28;20215;-55
2023/02/25 03:41:37;;;;;;;8.63;2.33;;;;;;;6.56;57.72;99060.66;10355150;28;20041;-54
2023/02/25 03:46:42;;;;;;;7.72;2.67;;;;;;;6.58;57.36;99057.88;10354756;28;20049;-54
2023/02/25 03:51:48;;;;;;;6.32;2.72;;;;;;;6.61;57.73;99057.63;10351435;28;20317;-54
2023/02/25 03:56:50;;;;;;;7.10;2.90;;;;;;;6.31;58.14;99040.69;10359916;28;20044;-54
2023/02/25 04:01:53;;;;;;;6.78;3.00;;;;;;;6.53;58.05;99074.09;10359535;28;20525;-54
2023/02/25 04:06:54;;;;;;;7.43;3.17;;;;;;;6.53;58.33;99077.59;10325481;28;20065;-54
2023/02/25 04:11:56;;;;;;;9.50;3.80;;;;;;;6.51;59.00;99084.81;10358588;28;20060;-54
2023/02/25 04:16:57;;;;;;;8.52;3.28;;;;;;;6.61;58.60;99079.63;10360627;28;20127;-54
2023/02/25 04:21:59;;;;;;;10.85;3.55;;;;;;;6.67;58.28;99079.09;10358035;28;20212;-54
2023/02/25 04:27:01;;;;;;;6.53;2.95;;;;;;;6.61;58.13;99082.25;10347013;28;20057;-54
2023/02/25 04:32:03;;;;;;;9.20;3.40;;;;;;;6.62;58.47;99070.72;10362233;28;20553;-54
2023/02/25 04:37:05;;;;;;;6.35;2.95;;;;;;;6.60;58.60;99072.63;10341293;28;20550;-54
2023/02/25 04:42:07;;;;;;;8.57;3.58;;;;;;;6.47;58.89;99080.75;10360861;28;20053;-54
2023/02/25 04:47:08;;;;;;;6.43;3.85;;;;;;;6.40;59.10;99081.38;10354664;28;20545;-55
2023/02/25 04:52:12;;;;;;;4.47;3.85;;;;;;;6.33;59.73;99076.56;10362403;28;20055;-55
2023/02/25 04:57:13;;;;;;;8.20;3.65;;;;;;;6.27;60.37;99082.38;10360715;28;20045;-54
2023/02/25 05:02:15;;;;;;;9.57;3.80;;;;;;;6.17;60.09;99077.00;10361506;28;20049;-54
2023/02/25 05:07:16;;;;;;;8.63;3.70;;;;;;;6.18;61.02;99089.25;10357101;28;20382;-54
2023/02/25 05:12:18;;;;;;;7.60;4.05;;;;;;;6.28;60.91;99088.50;10354996;28;20204;-59
2023/02/25 05:17:20;;;;;;;7.05;3.47;;;;;;;6.24;60.96;99092.34;10342363;28;20407;-54
2023/02/25 05:22:21;;;;;;;7.35;3.15;;;;;;;6.12;61.45;99080.97;10360992;28;20064;-55
2023/02/25 05:27:23;;;;;;;12.02;3.75;;;;;;;6.14;61.40;99089.59;10360188;28;20061;-54
2023/02/25 05:32:24;;;;;;;10.25;4.38;;;;;;;6.21;61.38;99098.72;10355305;28;20112;-53
2023/02/25 05:37:26;;;;;;;10.07;3.25;;;;;;;6.28;61.50;99088.50;10360621;28;20049;-54
2023/02/25 05:42:28;;;;;;;6.55;2.90;;;;;;;6.44;61.34;99094.22;10364195;28;20199;-54
2023/02/25 05:47:30;;;;;;;9.00;3.53;;;;;;;6.41;61.38;99083.03;10357197;28;20057;-54
2023/02/25 05:52:31;;;;;;;6.43;3.00;;;;;;;6.52;60.92;99080.38;10335756;28;20049;-55
2023/02/25 05:57:33;;;;;;;5.55;2.80;;;;;;;6.51;60.72;99078.69;10353811;28;20053;-54
2023/02/25 06:02:35;;;;;;;5.68;2.53;;;;;;;6.61;60.68;99094.66;10349932;28;20060;-53
2023/02/25 06:07:37;;;;;;;5.50;3.03;;;;;;;6.49;60.51;99107.06;10359000;28;20054;-53
2023/02/25 06:12:38;;;;;;;6.72;2.97;;;;;;;6.31;61.05;99094.38;10362340;28;20049;-54
2023/02/25 06:17:40;;;;;;;8.65;3.08;;;;;;;6.29;61.73;99098.97;10341447;28;20065;-55
2023/02/25 06:22:42;;;;;;;5.97;2.88;;;;;;;6.26;61.59;99106.28;10362531;28;20049;-54
2023/02/25 06:27:43;;;;;;;8.02;3.40;;;;;;;6.36;61.66;99102.78;10358962;28;20084;-54
2023/02/25 06:32:45;;;;;;;8.93;3.35;;;;;;;6.42;61.11;99121.75;10324148;28;20050;-54
2023/02/25 06:37:46;;;;;;;11.20;3.85;;;;;;;6.36;61.43;99118.66;10320947;28;20563;-55
2023/02/25 06:42:48;;;;;;;8.57;3.80;;;;;;;6.28;61.58;99113.13;10331515;28;20377;-54
2023/02/25 06:47:50;;;;;;;11.63;3.92;;;;;;;6.40;61.76;99129.81;10359676;28;20059;-55
2023/02/25 06:52:52;;;;;;;10.88;4.25;;;;;;;6.55;61.13;99127.72;10361018;28;20049;-54
2023/02/25 06:57:54;;;;;;;7.05;3.42;;;;;;;6.50;60.87;99135.16;10361747;28;20468;-54
2023/02/25 07:02:56;;;;;;;7.63;3.90;;;;;;;6.53;61.32;99133.13;10323132;28;20709;-55
2023/02/25 07:07:58;;;;;;;10.55;3.65;;;;;;;6.34;61.73;99133.78;10335240;28;20054;-54
2023/02/25 07:13:00;;;;;;;7.40;4.07;;;;;;;6.27;61.78;99118.53;10309846;28;20053;-55
2023/02/25 07:18:02;;;;;;;7.38;4.43;;;;;;;6.21;61.98;99124.31;10334912;28;20421;-55
2023/02/25 07:23:05;;;;;;;7.13;3.28;;;;;;;6.40;62.08;99147.47;10335959;28;20053;-55
2023/02/25 07:28:06;;;;;;;8.60;3.80;;;;;;;6.42;62.56;99156.09;10331673;28;20057;-55
2023/02/25 07:33:08;;;;;;;7.47;3.90;;;;;;;6.37;62.05;99141.44;10332444;28;20142;-55
2023/02/25 07:38:11;;;;;;;8.02;4.15;;;;;;;6.55;61.93;99162.09;10335138;28;20049;-54
2023/02/25 07:43:13;;;;;;;7.68;3.58;;;;;;;6.58;61.67;99169.78;10335511;28;20054;-55
2023/02/25 07:48:15;;;;;;;5.40;4.03;;;;;;;6.66;61.46;99166.50;10334476;28;20069;-55
2023/02/25 07:53:17;;;;;;;8.60;3.75;;;;;;;6.62;61.24;99144.75;10337111;28;20111;-55
2023/02/25 07:58:19;;;;;;;11.63;4.90;;;;;;;6.64;61.06;99158.69;10337670;28;20053;-56
2023/02/25 08:03:20;;;;;;;7.80;4.53;;;;;;;6.52;61.96;99181.69;10337673;28;20064;-54
2023/02/25 08:08:22;;;;;;;10.27;4.63;;;;;;;6.45;61.86;99166.44;10337642;28;20057;-58
2023/02/25 08:13:23;;;;;;;7.82;4.70;;;;;;;6.50;61.77;99158.97;10338437;28;20060;-56
2023/02/25 08:18:25;;;;;;;7.40;4.63;;;;;;;6.51;62.14;99179.97;10338290;28;20049;-55
2023/02/25 08:23:26;;;;;;;8.60;4.53;;;;;;;6.46;62.57;99186.63;10329526;28;20514;-56
2023/02/25 08:28:31;;;;;;;7.68;4.35;;;;;;;6.44;62.37;99183.25;10346192;28;20179;-56
2023/02/25 08:33:43;;;;;;;7.03;4.85;;;;;;;6.51;62.51;99195.00;10336806;28;20053;-56
2023/02/25 08:38:44;;;;;;;7.90;5.18;;;;;;;6.41;62.22;99172.91;10337182;28;20837;-55
2023/02/25 08:43:53;;;;;;;9.80;5.35;;;;;;;6.56;61.62;99179.63;10341826;28;20498;-59
2023/02/25 08:48:56;;;;;;;8.52;4.90;;;;;;;6.54;61.96;99190.34;10353067;28;20808;-56
2023/02/25 08:53:58;;;;;;;10.23;4.80;;;;;;;6.61;61.84;99195.97;10351816;28;20133;-55
2023/02/25 08:59:00;;;;;;;9.18;4.93;;;;;;;6.62;61.95;99186.22;10340017;28;20058;-56
2023/02/25 09:04:02;;;;;;;8.68;4.38;;;;;;;6.80;61.27;99194.47;10358256;28;20061;-55
2023/02/25 09:09:04;;;;;;;8.85;5.30;;;;;;;7.00;60.11;99203.41;10339207;28;20055;-55
2023/02/25 09:14:06;;;;;;;7.78;4.78;;;;;;;7.23;59.11;99198.84;10337805;28;20406;-55
2023/02/25 09:19:09;;;;;;;7.85;4.18;;;;;;;7.25;58.52;99189.81;10340484;28;21856;-55
2023/02/25 09:24:11;;;;;;;7.22;3.88;;;;;;;7.27;58.56;99208.22;10335547;28;20787;-55
2023/02/25 09:29:13;;;;;;;9.18;4.25;;;;;;;7.19;57.71;99208.00;10338421;28;20079;-55
2023/02/25 09:34:15;;;;;;;8.85;4.45;;;;;;;7.16;57.58;99205.63;10335384;28;20497;-55
2023/02/25 09:39:16;;;;;;;5.97;4.45;;;;;;;7.33;57.17;99206.88;10338942;28;20253;-55
2023/02/25 09:44:48;;;;;;;9.73;3.95;;;;;;;7.36;56.52;99202.16;10337112;28;20059;-55
2023/02/25 09:49:54;;;;;;;7.63;2.97;;;;;;;7.78;55.01;99196.84;10335067;28;20076;-56
2023/02/25 09:54:56;;;;;;;6.97;3.38;;;;;;;8.26;53.28;99191.88;10342592;28;20183;-56
2023/02/25 09:59:58;;;;;;;7.60;4.10;;;;;;;8.98;50.86;99168.72;10330859;28;20132;-55
2023/02/25 10:05:20;;;;;;;10.70;4.00;;;;;;;9.14;50.29;99182.28;10346633;28;22314;-55
2023/02/25 10:10:24;;;;;;;7.15;3.38;;;;;;;9.01;49.81;99181.72;10338764;28;20060;-55
2023/02/25 10:15:34;;;;;;;7.30;3.20;;;;;;;8.84;49.48;99186.72;10338409;28;20478;-55
2023/02/25 10:20:38;;;;;;;6.70;3.05;;;;;;;8.65;50.74;99153.03;10335949;28;20049;-51
2023/02/25 10:25:49;;;;;;;9.10;3.42;;;;;;;8.83;50.28;99197.47;10337004;28;20055;-58
2023/02/25 10:31:00;;;;;;;5.80;3.08;;;;;;;8.56;50.12;99196.31;10333989;28;20119;-55
2023/02/25 10:36:13;;;;;;;4.85;2.90;;;;;;;8.20;49.99;99195.09;10335793;28;20080;-55
2023/02/25 10:41:16;;;;;;;5.93;3.00;;;;;;;8.04;51.13;99199.03;10335340;28;20050;-60
2023/02/25 10:46:34;;;;;;;5.00;2.85;;;;;;;8.16;51.41;99193.66;10338748;28;21568;-54
2023/02/25 10:51:36;;;;;;;7.57;3.28;;;;;;;8.56;50.68;99206.09;10335766;28;20106;-55
2023/02/25 10:56:43;;;;;;;8.27;3.47;;;;;;;9.73;48.71;99195.47;10334690;28;20574;-56
2023/02/25 11:01:46;;;;;;;8.55;3.13;;;;;;;9.65;48.03;99200.63;10331374;28;20324;-55
2023/02/25 11:06:48;;;;;;;4.70;3.22;;;;;;;9.12;49.19;99202.78;10353694;28;20049;-54
2023/02/25 11:12:08;;;;;;;5.35;3.10;;;;;;;8.90;49.87;99187.97;10326737;28;20187;-54
2023/02/25 11:17:12;;;;;;;6.93;2.78;;;;;;;8.73;50.77;99200.09;10335298;28;20458;-54
2023/02/25 11:22:30;;;;;;;7.80;2.92;;;;;;;8.18;51.07;99194.34;10338439;28;20061;-54
2023/02/25 11:27:38;;;;;;;4.45;2.90;;;;;;;8.31;51.33;99208.22;10330875;28;20179;-54
2023/02/25 11:32:47;;;;;;;5.72;2.88;;;;;;;7.86;53.51;99208.59;10334962;28;20061;-54
2023/02/25 11:37:49;;;;;;;6.10;2.40;;;;;;;7.05;57.80;99204.69;10335312;28;20422;-56
2023/02/25 11:43:21;;;;;;;2.90;0.88;;;;;;;7.88;59.21;99249.03;10348926;28;20160;-56
2023/02/25 11:48:28;;;;;;;0.65;0.30;;;;;;;13.28;48.52;99239.84;10330941;28;20054;-55
2023/02/25 11:53:46;;;;;;;2.28;1.05;;;;;;;17.89;36.49;99217.25;10332204;28;20045;-56
2023/02/25 11:59:03;;;;;;;0.47;0.10;;;;;;;16.58;37.67;99222.75;10318120;28;20046;-56
2023/02/25 12:04:17;;;;;;;0.85;0.10;;;;;;;17.46;35.82;99220.84;10332083;28;20092;-56
2023/02/25 12:09:47;;;;;;;1.10;0.52;;;;;;;15.44;37.90;99209.50;10336690;28;20056;-55
2023/02/25 12:15:28;;;;;;;2.90;0.20;;;;;;;14.00;40.75;99215.09;10333648;28;20045;-55
2023/02/25 12:21:07;;;;;;;1.45;0.40;;;;;;;12.27;43.90;99206.88;10341597;28;20075;-55
2023/02/25 12:26:49;;;;;;;1.40;0.43;;;;;;;11.05;46.25;99197.00;10346396;28;20426;-55
2023/02/25 12:32:02;;;;;;;4.22;1.10;;;;;;;10.53;47.88;99203.00;10337385;28;20053;-56
2023/02/25 12:37:13;;;;;;;2.35;1.02;;;;;;;10.14;47.18;99196.00;10341930;28;20041;-54
2023/02/25 12:42:36;;;;;;;2.10;1.35;;;;;;;9.87;48.18;99212.75;10335907;28;20041;-54
2023/02/25 12:47:53;;;;;;;1.17;0.60;;;;;;;12.62;42.14;99207.66;10352501;28;20521;-58
2023/02/25 12:53:13;;;;;;;1.48;0.55;;;;;;;13.45;39.23;99206.00;10346158;28;20191;-57
2023/02/25 12:58:34;;;;;;;1.60;0.60;;;;;;;13.40;39.71;99201.13;10340678;28;20052;-56
2023/02/25 13:04:10;;;;;;;1.83;0.45;;;;;;;19.15;29.23;99197.28;10327111;28;20511;-57
2023/02/25 13:09:25;;;;;;;2.80;0.52;;;;;;;15.60;34.66;99195.97;10339734;28;20417;-57
2023/02/25 13:14:57;;;;;;;1.65;0.70;;;;;;;14.81;35.71;99210.44;10333810;28;20777;-56
2023/02/25 13:20:37;;;;;;;1.63;0.70;;;;;;;12.86;36.54;99193.53;10345203;28;20724;-56
2023/02/25 13:25:56;;;;;;;2.30;0.40;;;;;;;11.31;40.05;99189.91;10332923;28;20162;-55
2023/02/25 13:31:07;;;;;;;1.05;0.30;;;;;;;10.58;41.34;99190.91;10332566;28;20060;-56
2023/02/25 13:36:43;;;;;;;1.55;0.55;;;;;;;10.47;41.98;99204.41;10336265;28;20061;-55
2023/02/25 13:41:56;;;;;;;0.80;0.40;;;;;;;10.37;42.59;99183.19;10333770;28;20131;-56
2023/02/25 13:47:20;;;;;;;1.15;0.60;;;;;;;14.28;36.98;99209.34;10337351;28;20179;-71
2023/02/25 13:52:34;;;;;;;0.60;0.40;;;;;;;17.10;33.68;99215.53;10325983;28;20065;-56
2023/02/25 13:58:16;;;;;;;0.75;0.30;;;;;;;13.23;40.29;99232.34;10343689;28;20152;-53
2023/02/25 14:03:46;;;;;;;2.80;0.60;;;;;;;11.21;45.05;99218.47;10338991;28;20045;-53
2023/02/25 14:09:18;;;;;;;1.50;0.38;;;;;;;11.62;45.07;99250.81;10344134;28;20390;-57
2023/02/25 14:14:38;;;;;;;2.50;0.70;;;;;;;10.29;46.54;99270.84;10332794;28;20138;-55
2023/02/25 14:19:59;;;;;;;1.88;0.50;;;;;;;9.26;51.98;99288.31;10332841;28;20473;-59
2023/02/25 14:25:17;;;;;;;4.97;0.82;;;;;;;8.80;54.84;99288.81;10301595;28;20058;-55
2023/02/25 14:30:31;;;;;;;3.58;0.60;;;;;;;8.51;55.95;99282.56;10334561;28;20053;-53
2023/02/25 14:35:58;;;;;;;2.42;0.88;;;;;;;8.59;55.93;99296.84;10337074;28;20046;-55
2023/02/25 14:41:24;;;;;;;4.60;1.13;;;;;;;8.19;56.41;99302.09;10329865;28;20546;-54
2023/02/25 14:46:29;;;;;;;2.42;0.95;;;;;;;8.26;56.00;99297.94;10336959;28;20049;-54
2023/02/25 14:51:52;;;;;;;3.45;0.95;;;;;;;9.24;53.87;99303.56;10335993;28;20058;-55
2023/02/25 14:57:14;;;;;;;2.90;1.33;;;;;;;16.60;37.93;99280.66;10310309;28;20057;-54
2023/02/25 15:02:34;;;;;;;3.40;0.88;;;;;;;19.22;32.12;99302.53;10322841;28;20053;-52
2023/02/25 15:07:51;;;;;;;2.33;0.90;;;;;;;18.06;31.41;99295.03;10330012;28;20064;-53
2023/02/25 15:13:25;;;;;;;2.05;0.85;;;;;;;14.37;38.35;99304.66;10346427;28;20136;-53
2023/02/25 15:18:27;;;;;;;;;;;;;;;12.07;41.70;99301.47;10332298;28;20582;-57
2023/02/25 15:23:49;;;;;;;2.15;0.63;;;;;;;10.83;42.20;99310.13;10333266;28;20402;-52
2023/02/25 15:28:54;;;;;;;3.00;1.13;;;;;;;10.52;40.09;99321.88;10335291;28;20434;-51
2023/02/25 15:34:20;;;;;;;2.78;1.15;;;;;;;10.04;37.65;99330.78;10331501;28;20453;-54
2023/02/25 15:39:52;;;;;;;4.65;1.25;;;;;;;9.66;38.65;99337.84;10335901;28;20041;-50
2023/02/25 15:45:27;;;;;;;4.90;1.38;;;;;;;9.26;39.75;99344.91;10325243;28;20990;-50
2023/02/25 15:50:41;;;;;;;3.45;1.10;;;;;;;9.23;39.29;99366.44;10353126;28;20049;-55
2023/02/25 15:55:43;;;;;;;3.47;1.33;;;;;;;8.95;38.79;99371.53;10344700;28;20058;-55
2023/02/25 16:00:45;;;;;;;3.97;1.60;;;;;;;8.13;40.31;99380.31;10343174;28;20064;-54
2023/02/25 16:05:46;;;;;;;1.95;0.90;;;;;;;8.00;40.53;99388.47;10344286;28;20053;-53
2023/02/25 16:10:51;;;;;;;5.03;1.75;;;;;;;7.88;40.39;99392.13;10339814;28;20070;-52
2023/02/25 16:15:56;;;;;;;3.13;0.70;;;;;;;7.63;39.22;99414.47;10340016;28;20628;-52
2023/02/25 16:21:03;;;;;;;1.83;0.73;;;;;;;7.39;39.05;99413.72;10342154;28;20053;-52
2023/02/25 16:26:35;;;;;;;4.38;1.50;;;;;;;7.08;39.77;99432.03;10337706;28;20053;-52
2023/02/25 16:32:06;;;;;;;4.35;1.67;;;;;;;7.08;39.07;99437.31;10352593;28;20049;-53
2023/02/25 16:37:29;;;;;;;2.67;1.02;;;;;;;6.96;39.02;99437.47;10335488;28;20723;-51
2023/02/25 16:42:32;;;;;;;1.30;1.00;;;;;;;6.83;39.29;99453.44;10333943;28;20061;-51
2023/02/25 16:47:37;;;;;;;3.22;1.10;;;;;;;7.00;39.94;99471.50;10342476;28;20045;-60
2023/02/25 16:52:46;;;;;;;4.30;1.40;;;;;;;6.95;39.37;99478.97;10340086;28;20358;-54
2023/02/25 16:58:19;;;;;;;2.85;1.10;;;;;;;6.51;39.83;99448.84;10343379;28;20057;-55
2023/02/25 17:03:24;;;;;;;3.45;0.90;;;;;;;6.71;40.57;99503.69;10343080;28;20049;-50
2023/02/25 17:08:26;;;;;;;4.32;1.65;;;;;;;6.69;40.65;99513.53;10338767;28;20049;-52
2023/02/25 17:13:32;;;;;;;4.55;2.45;;;;;;;6.64;41.00;99528.94;10341441;28;20057;-57
2023/02/25 17:18:47;;;;;;;3.88;1.88;;;;;;;6.68;41.19;99540.97;10341811;28;20049;-54
2023/02/25 17:23:50;;;;;;;7.47;1.37;;;;;;;6.58;41.14;99547.06;10340528;28;20053;-55
2023/02/25 17:28:56;;;;;;;1.73;1.10;;;;;;;6.32;41.71;99553.34;10355250;28;21191;-55
2023/02/25 17:34:02;;;;;;;2.50;0.90;;;;;;;6.16;40.92;99566.00;10337201;28;20076;-54
2023/02/25 17:39:07;;;;;;;3.92;0.50;;;;;;;6.18;39.78;99585.22;10330059;28;20073;-55
2023/02/25 17:44:37;;;;;;;2.10;0.80;;;;;;;5.94;39.76;99582.53;10351966;28;20163;-55
2023/02/25 17:49:39;;;;;;;1.75;1.15;;;;;;;5.96;39.96;99592.03;10335469;28;20053;-55
2023/02/25 17:54:46;;;;;;;1.67;0.88;;;;;;;6.03;40.64;99602.19;10339022;28;20148;-54
2023/02/25 17:59:55;;;;;;;2.13;0.60;;;;;;;5.90;40.25;99608.31;10328066;28;20138;-57
2023/02/25 18:05:09;;;;;;;3.40;1.20;;;;;;;5.76;40.17;99611.09;10345333;28;20037;-54
2023/02/25 18:10:46;;;;;;;2.33;0.98;;;;;;;5.71;39.98;99623.78;10335940;28;20105;-55
2023/02/25 18:16:26;;;;;;;2.85;1.33;;;;;;;5.82;40.40;99631.78;10327946;28;20049;-54
2023/02/25 18:21:28;;;;;;;1.50;1.02;;;;;;;5.72;40.13;99630.72;10341400;28;20139;-54
2023/02/25 18:26:30;;;;;;;0.90;0.60;;;;;;;5.63;41.09;99634.84;10334247;28;20056;-54
2023/02/25 18:31:33;;;;;;;2.03;0.80;;;;;;;5.60;42.05;99646.50;10333711;28;20164;-54
2023/02/25 18:36:35;;;;;;;2.08;1.20;;;;;;;5.43;42.23;99636.25;10337912;28;20052;-54
2023/02/25 18:41:36;;;;;;;3.83;1.10;;;;;;;5.43;42.09;99649.44;10332847;28;20142;-56
2023/02/25 18:46:38;;;;;;;2.88;1.20;;;;;;;5.34;42.39;99642.16;10332206;28;20057;-55
2023/02/25 18:51:39;;;;;;;1.67;0.90;;;;;;;5.30;42.43;99652.94;10336542;28;20172;-55
2023/02/25 18:56:41;;;;;;;2.47;1.80;;;;;;;5.21;42.58;99653.56;10336839;28;20546;-54
2023/02/25 19:01:42;;;;;;;3.67;1.70;;;;;;;5.19;43.09;99659.88;10336901;28;20050;-54
2023/02/25 19:06:46;;;;;;;2.38;1.20;;;;;;;5.12;43.13;99670.03;10331327;28;20914;-54
2023/02/25 19:11:47;;;;;;;3.03;1.65;;;;;;;5.06;43.03;99675.69;10327292;28;20049;-54
2023/02/25 19:16:48;;;;;;;2.38;1.73;;;;;;;5.01;43.49;99680.44;10334585;28;20049;-54
2023/02/25 19:21:50;;;;;;;3.00;2.00;;;;;;;5.00;43.66;99692.78;10325437;28;20765;-55
2023/02/25 19:26:52;;;;;;;1.90;1.33;;;;;;;4.94;43.88;99695.84;10345796;28;20092;-56
2023/02/25 19:31:53;;;;;;;3.03;1.63;;;;;;;4.87;43.91;99705.94;10339809;28;20656;-55
2023/02/25 19:36:55;;;;;;;3.38;2.00;;;;;;;4.87;44.19;99713.84;10333471;28;20057;-55
2023/02/25 19:41:57;;;;;;;4.63;2.00;;;;;;;4.86;44.34;99722.69;10337697;28;20065;-55
2023/02/25 19:46:58;;;;;;;2.20;1.45;;;;;;;4.81;44.05;99730.06;10336325;28;20057;-54
2023/02/25 19:52:00;;;;;;;5.35;2.83;;;;;;;4.69;44.90;99725.59;10335753;28;21383;-55
2023/02/25 19:57:01;;;;;;;4.35;3.33;;;;;;;4.60;44.92;99727.84;10323474;28;20054;-55
2023/02/25 20:02:03;;;;;;;5.05;3.50;;;;;;;4.71;45.03;99750.06;10331332;28;20506;-54
2023/02/25 20:07:05;;;;;;;3.42;2.95;;;;;;;4.68;45.75;99751.09;10333317;28;20164;-54
2023/02/25 20:12:07;;;;;;;2.90;2.42;;;;;;;4.65;45.57;99758.34;10331864;28;21035;-54
2023/02/25 20:17:08;;;;;;;3.53;2.97;;;;;;;4.63;45.73;99765.53;10324745;28;20160;-54
2023/02/25 20:22:10;;;;;;;4.88;2.70;;;;;;;4.60;45.53;99775.31;10336510;28;20704;-56
2023/02/25 20:27:11;;;;;;;3.67;2.63;;;;;;;4.52;45.63;99779.38;10323490;28;20049;-54
2023/02/25 20:32:13;;;;;;;2.97;1.73;;;;;;;4.45;45.88;99776.28;10335249;28;20550;-55
2023/02/25 20:37:21;;;;;;;3.65;1.38;;;;;;;4.41;46.40;99766.88;10334561;28;20089;-55
2023/02/25 20:42:27;;;;;;;2.50;1.67;;;;;;;4.41;46.12;99786.19;10335865;28;20064;-55
2023/02/25 20:47:33;;;;;;;2.05;1.50;;;;;;;4.38;45.67;99796.06;10350894;28;20320;-56
2023/02/25 20:52:35;;;;;;;3.70;1.67;;;;;;;4.35;46.28;99798.88;10338224;28;20068;-56
2023/02/25 20:57:37;;;;;;;1.90;1.40;;;;;;;4.25;46.18;99791.53;10330452;28;20886;-54
2023/02/25 21:02:38;;;;;;;3.05;1.83;;;;;;;4.04;46.15;99771.81;10337210;28;20089;-56
2023/02/25 21:07:40;;;;;;;1.55;1.40;;;;;;;4.25;45.83;99822.31;10333365;28;20060;-58
2023/02/25 21:12:42;;;;;;;4.60;1.30;;;;;;;4.25;45.84;99815.25;10332100;28;20053;-57
2023/02/25 21:17:44;;;;;;;3.13;1.60;;;;;;;4.28;45.76;99826.53;10315044;28;20171;-56
2023/02/25 21:22:46;;;;;;;2.20;1.85;;;;;;;4.24;45.84;99832.00;10334310;28;20100;-56
2023/02/25 21:27:48;;;;;;;2.13;1.88;;;;;;;4.19;46.23;99817.44;10335155;28;20509;-58
2023/02/25 21:32:50;;;;;;;4.75;1.92;;;;;;;4.08;47.16;99825.97;10335763;28;20057;-58
2023/02/25 21:37:52;;;;;;;2.13;1.58;;;;;;;3.88;46.83;99833.28;10329671;28;20054;-56
2023/02/25 21:42:54;;;;;;;2.95;1.40;;;;;;;3.83;47.21;99816.91;10329146;28;20218;-56
2023/02/25 21:47:56;;;;;;;4.45;1.85;;;;;;;3.99;47.38;99842.31;10334594;28;21021;-56
2023/02/25 21:52:57;;;;;;;2.08;1.65;;;;;;;3.98;46.60;99845.88;10334519;28;20145;-54
2023/02/25 21:57:59;;;;;;;2.75;1.80;;;;;;;3.93;46.38;99853.22;10335813;28;20578;-57
2023/02/25 22:03:01;;;;;;;3.10;1.33;;;;;;;4.00;46.49;99852.75;10333703;28;20066;-55
2023/02/25 22:08:04;;;;;;;3.72;1.45;;;;;;;3.98;46.77;99843.25;10326706;28;20048;-57
2023/02/25 22:13:07;;;;;;;3.38;2.10;;;;;;;3.85;47.41;99853.69;10336922;28;20539;-55
2023/02/25 22:18:08;;;;;;;2.65;2.00;;;;;;;3.80;47.11;99832.91;10329315;28;20658;-56
2023/02/25 22:23:10;;;;;;;3.60;1.67;;;;;;;3.85;47.38;99857.16;10334224;28;20061;-55
2023/02/25 22:28:11;;;;;;;2.38;1.75;;;;;;;4.01;48.08;99856.28;10340493;28;20050;-57
2023/02/25 22:33:13;;;;;;;2.90;1.90;;;;;;;3.98;47.78;99862.56;10340231;28;20060;-54
2023/02/25 22:38:15;;;;;;;4.47;2.28;;;;;;;3.92;47.19;99852.38;10328675;28;20058;-54
2023/02/25 22:43:16;;;;;;;3.25;2.22;;;;;;;3.91;47.28;99844.59;10328702;28;20464;-55
2023/02/25 22:48:18;;;;;;;4.32;2.65;;;;;;;3.86;46.88;99864.13;10352314;28;20048;-55
2023/02/25 22:53:20;;;;;;;5.00;2.47;;;;;;;3.84;46.43;99855.47;10377223;28;20057;-54
2023/02/25 22:58:24;;;;;;;3.15;1.80;;;;;;;3.71;46.68;99851.88;10342945;28;20046;-55
2023/02/25 23:03:26;;;;;;;2.55;1.42;;;;;;;3.89;46.80;99877.09;10328014;28;20052;-55
2023/02/25 23:08:29;;;;;;;5.10;2.15;;;;;;;3.81;46.40;99875.84;10326236;28;20045;-55
2023/02/25 23:13:31;;;;;;;4.90;2.00;;;;;;;3.76;46.86;99878.75;10336632;28;20057;-58
2023/02/25 23:18:33;;;;;;;3.80;1.75;;;;;;;3.66;46.74;99867.06;10316475;28;20451;-55
2023/02/25 23:23:37;;;;;;;5.45;3.13;;;;;;;3.68;46.80;99881.84;10338139;28;20067;-55
2023/02/25 23:28:40;;;;;;;3.15;2.05;;;;;;;3.33;47.62;99855.78;10355773;28;20143;-55
2023/02/25 23:33:42;;;;;;;2.58;1.70;;;;;;;3.57;47.14;99883.41;10341233;28;20133;-55
2023/02/25 23:38:43;;;;;;;3.08;1.45;;;;;;;3.66;47.32;99886.38;10356931;28;20060;-55
2023/02/25 23:43:45;;;;;;;4.10;2.10;;;;;;;3.69;47.44;99890.56;10358080;28;20609;-55
2023/02/25 23:48:47;;;;;;;4.57;1.95;;;;;;;3.70;47.53;99882.59;10359603;28;20767;-54
2023/02/25 23:53:53;;;;;;;4.85;2.00;;;;;;;3.41;47.51;99847.44;10357869;28;20140;-55
2023/02/25 23:58:55;;;;;;;4.88;2.08;;;;;;;3.71;47.71;99880.81;10354510;28;20474;-55
